ADDS METAR Data INFO
IDs: Format: Raw Decoded Include TAF

Data at: 2056 UTC 26 May 2017

METAR for:KTVY (Tooele Valley Arpt, UT, US)
Text:KTVY 262035Z AUTO 36007KT 340V040 10SM CLR 18/03 A2990 RMK AO2
Temperature: 18.0°C ( 64°F)
Dewpoint: 3.0°C ( 37°F) [RH = 37%]
Pressure (altimeter):29.90 inches Hg (1012.6 mb)
Winds:from the N (360 degrees) at 8 MPH (7 knots; 3.6 m/s)
Visibility:10 or more sm (16+ km)
Ceiling:at least 12,000 feet AGL
Clouds:sky clear below 12,000 feet AGL
QC Flag:automated observation with no human augmentation
Text:KTVY 262015Z AUTO 04006G14KT 10SM CLR 17/04 A2990 RMK AO2
Temperature: 17.0°C ( 63°F)
Dewpoint: 4.0°C ( 39°F) [RH = 42%]
Pressure (altimeter):29.90 inches Hg (1012.6 mb)
Winds:from the NE (40 degrees) at 7 MPH (6 knots; 3.1 m/s) gusting to 16 MPH (14 knots; 7.2 m/s)
Visibility:10 or more sm (16+ km)
Ceiling:at least 12,000 feet AGL
Clouds:sky clear below 12,000 feet AGL
QC Flag:automated observation with no human augmentation
Text:KTVY 261955Z AUTO 02007G16KT 10SM CLR 17/05 A2990 RMK AO2
Temperature: 17.0°C ( 63°F)
Dewpoint: 5.0°C ( 41°F) [RH = 45%]
Pressure (altimeter):29.90 inches Hg (1012.6 mb)
Winds:from the NNE (20 degrees) at 8 MPH (7 knots; 3.6 m/s) gusting to 18 MPH (16 knots; 8.2 m/s)
Visibility:10 or more sm (16+ km)
Ceiling:at least 12,000 feet AGL
Clouds:sky clear below 12,000 feet AGL
QC Flag:automated observation with no human augmentation
Text:KTVY 261935Z AUTO 03010KT 10SM SCT046 17/06 A2990 RMK AO2
Temperature: 17.0°C ( 63°F)
Dewpoint: 6.0°C ( 43°F) [RH = 48%]
Pressure (altimeter):29.90 inches Hg (1012.6 mb)
Winds:from the NNE (30 degrees) at 12 MPH (10 knots; 5.1 m/s)
Visibility:10 or more sm (16+ km)
Ceiling:at least 12,000 feet AGL
Clouds: scattered clouds at 4600 feet AGL
QC Flag:automated observation with no human augmentation
Text:KTVY 261915Z AUTO 36007KT 10SM SCT044 17/06 A2990 RMK AO2
Temperature: 17.0°C ( 63°F)
Dewpoint: 6.0°C ( 43°F) [RH = 48%]
Pressure (altimeter):29.90 inches Hg (1012.6 mb)
Winds:from the N (360 degrees) at 8 MPH (7 knots; 3.6 m/s)
Visibility:10 or more sm (16+ km)
Ceiling:at least 12,000 feet AGL
Clouds: scattered clouds at 4400 feet AGL
QC Flag:automated observation with no human augmentation
Text:KTVY 261855Z AUTO 05006KT 10SM CLR 17/06 A2990 RMK AO2
Temperature: 17.0°C ( 63°F)
Dewpoint: 6.0°C ( 43°F) [RH = 48%]
Pressure (altimeter):29.90 inches Hg (1012.6 mb)
Winds:from the NE (50 degrees) at 7 MPH (6 knots; 3.1 m/s)
Visibility:10 or more sm (16+ km)
Ceiling:at least 12,000 feet AGL
Clouds:sky clear below 12,000 feet AGL
QC Flag:automated observation with no human augmentation
Text:KTVY 261755Z AUTO 01004KT 10SM SCT120 15/04 A2988 RMK AO2
Temperature: 15.0°C ( 59°F)
Dewpoint: 4.0°C ( 39°F) [RH = 48%]
Pressure (altimeter):29.88 inches Hg (1011.9 mb)
Winds:from the N (10 degrees) at 5 MPH (4 knots; 2.1 m/s)
Visibility:10 or more sm (16+ km)
Ceiling:at least 12,000 feet AGL
Clouds: scattered clouds at 12000 feet AGL
QC Flag:automated observation with no human augmentation
Text:KTVY 261735Z AUTO 34005KT 10SM SCT110 15/04 A2987 RMK AO2
Temperature: 15.0°C ( 59°F)
Dewpoint: 4.0°C ( 39°F) [RH = 48%]
Pressure (altimeter):29.87 inches Hg (1011.6 mb)
Winds:from the NNW (340 degrees) at 6 MPH (5 knots; 2.6 m/s)
Visibility:10 or more sm (16+ km)
Ceiling:at least 12,000 feet AGL
Clouds: scattered clouds at 11000 feet AGL
QC Flag:automated observation with no human augmentation
Text:KTVY 261715Z AUTO 36007KT 10SM SCT110 15/05 A2987 RMK AO2
Temperature: 15.0°C ( 59°F)
Dewpoint: 5.0°C ( 41°F) [RH = 51%]
Pressure (altimeter):29.87 inches Hg (1011.6 mb)
Winds:from the N (360 degrees) at 8 MPH (7 knots; 3.6 m/s)
Visibility:10 or more sm (16+ km)
Ceiling:at least 12,000 feet AGL
Clouds: scattered clouds at 11000 feet AGL
QC Flag:automated observation with no human augmentation
Text:KTVY 261655Z AUTO 31008KT 10SM SCT120 16/05 A2986 RMK AO2
Temperature: 16.0°C ( 61°F)
Dewpoint: 5.0°C ( 41°F) [RH = 48%]
Pressure (altimeter):29.86 inches Hg (1011.3 mb)
Winds:from the NW (310 degrees) at 9 MPH (8 knots; 4.1 m/s)
Visibility:10 or more sm (16+ km)
Ceiling:at least 12,000 feet AGL
Clouds: scattered clouds at 12000 feet AGL
QC Flag:automated observation with no human augmentation
Text:KTVY 261635Z AUTO 01004KT 10SM SCT120 15/04 A2985 RMK AO2
Temperature: 15.0°C ( 59°F)
Dewpoint: 4.0°C ( 39°F) [RH = 48%]
Pressure (altimeter):29.85 inches Hg (1010.9 mb)
Winds:from the N (10 degrees) at 5 MPH (4 knots; 2.1 m/s)
Visibility:10 or more sm (16+ km)
Ceiling:at least 12,000 feet AGL
Clouds: scattered clouds at 12000 feet AGL
QC Flag:automated observation with no human augmentation
Text:KTVY 261615Z AUTO 01006KT 10SM SCT120 15/05 A2984 RMK AO2
Temperature: 15.0°C ( 59°F)
Dewpoint: 5.0°C ( 41°F) [RH = 51%]
Pressure (altimeter):29.84 inches Hg (1010.6 mb)
Winds:from the N (10 degrees) at 7 MPH (6 knots; 3.1 m/s)
Visibility:10 or more sm (16+ km)
Ceiling:at least 12,000 feet AGL
Clouds: scattered clouds at 12000 feet AGL
QC Flag:automated observation with no human augmentation


Page loaded:  20:56 UTC  |   01:56 PM Pacific  |   02:56 PM Mountain  |   03:56 PM Central  |   04:56 PM Eastern

 

ADVISORIES

FORECASTS

FORECASTS

OBSERVATIONS

USER TOOLS

ABOUT US